Adobe Reservoir




Date Battery Voltage (V) Panel Temperature (degF) Reservoir Height (ft) Reservoir Acre Feet (AF) Blue Cut-Clipper-Western Meter (cfs) Hunter Plant Meter (cfs) Air Temperature (degF) Blue Cut-Clipper-Western Meter GPM (gpm) Hunter Plant Meter GPM (gpm) Reservoir Elevation (ft) Battery Voltage 24 (V) Hunter Plant Meter Total Gallons (gal) Pond Battery Voltage (V) Pond 24V Battery Voltage (V) Pipe PSI (PSI) K Gallons Total (gal) Signal Strength (db) Call Fails (ea) Total Fails (ea) Tries (ea) Water Level Sensor Upper Mammoth Meter (gpm) Upper Mammoth Meter (cfs)
05/01/2017 12.3 16.9 96.0 1,020 31.8 3.0 50 14,283 1,352 5,996.0 28.2 12.2 26.7 25.2 4,279,105.00 0.00 1,614.24 3.60
05/02/2017 12.3 17.8 95.7 998 35.0 3.0 50 15,697 1,349 5,995.7 27.6 12.2 26.6 24.9 4,281,265.00 0.00 1,857.78 4.14
05/03/2017 12.3 18.3 95.4 978 38.7 3.0 51 17,363 1,346 5,995.4 27.6 12.2 26.7 24.5 4,283,425.00 0.00 1,906.53 4.25
05/04/2017 12.3 20.1 95.2 963 42.6 3.4 51 19,114 1,542 5,995.2 28.0 12.2 26.6 24.2 4,285,863.00 0.00 1,996.11 4.45
05/05/2017 12.3 21.7 94.9 936 46.0 11.4 52 20,641 5,107 5,994.9 27.7 12.2 26.6 23.4 4,293,230.00 0.00 2,301.46 5.13
05/06/2017 12.3 21.7 94.3 897 43.3 15.7 53 19,437 7,059 5,994.3 27.9 12.2 26.3 23.3 4,303,310.00 0.00 2,001.32 4.46
05/07/2017 12.3 20.4 94.6 919 39.9 15.8 53 17,891 7,073 5,994.6 27.9 12.2 26.7 23.7 4,313,390.00 64.02 1,302.64 2.90
05/08/2017 12.3 21.2 94.7 924 44.9 16.5 54 20,169 7,418 5,994.7 28.5 12.2 26.6 23.2 4,323,903.00 0.00 2,620.00 5.84
05/09/2017 12.3 20.9 94.4 907 46.4 16.0 54 20,834 7,168 5,994.4 28.5 12.2 26.6 23.0 4,334,267.00 0.00 2,601.18 5.80
05/10/2017 12.3 19.2 94.3 900 42.6 15.3 54 19,098 6,859 5,994.3 28.7 12.2 26.3 23.3 4,344,347.00 0.00 2,508.47 5.59
05/11/2017 12.3 19.1 94.4 907 40.4 15.9 54 18,114 7,135 5,994.4 28.4 12.2 26.7 23.4 4,354,820.00 0.00 2,833.33 6.31
05/12/2017 12.3 21.4 94.5 911 36.4 23.7 54 16,317 10,650 5,994.5 28.3 12.2 26.6 23.3 4,370,094.00 0.00 2,425.97 5.41
05/13/2017 12.3 21.6 94.5 910 32.7 27.1 55 14,689 12,177 5,994.5 28.0 12.2 26.6 23.4 4,387,681.00 64.15 1,926.74 4.29
05/14/2017 12.3 19.8 94.6 921 33.8 21.6 54 15,153 9,700 5,994.6 28.0 12.2 26.7 23.8 4,401,428.00 0.00 1,311.60 2.92
05/15/2017 12.3 20.2 94.7 924 40.1 27.3 54 17,975 12,233 5,994.7 28.0 12.2 26.6 23.0 4,419,157.00 0.00 1,775.76 3.96
05/16/2017 12.3 18.5 94.4 906 41.7 27.7 54 18,708 12,429 5,994.4 28.5 12.2 26.7 22.6 4,437,157.00 0.00 2,774.17 6.18
05/17/2017 12.3 16.6 94.2 891 34.8 27.8 53 15,605 12,472 5,994.2 28.6 12.2 26.5 23.0 4,455,157.00 0.00 2,423.33 5.40
05/18/2017 12.3 14.5 94.2 891 31.2 27.8 52 14,011 12,457 5,994.2 28.5 12.2 26.9 23.3 4,473,157.00 0.00 2,747.43 6.12
05/19/2017 12.3 15.4 94.2 888 32.1 27.7 52 14,389 12,440 5,994.2 28.4 12.2 26.8 23.1 4,491,157.00 0.00 2,872.71 6.40
05/20/2017 12.3 16.7 94.3 900 31.8 27.8 51 14,249 12,460 5,994.3 28.3 12.2 26.8 23.3 4,509,157.00 0.00 2,356.94 5.25
05/21/2017 12.3 17.7 94.5 913 29.5 27.9 52 13,254 12,523 5,994.5 28.4 12.2 26.4 23.6 4,527,157.00 0.00 2,346.53 5.23
05/22/2017 12.3 18.0 94.7 928 31.3 28.0 52 14,025 12,562 5,994.7 28.2 12.2 26.7 23.4 4,545,157.00 64.25 3,080.90 6.86
05/23/2017 12.3 20.1 94.8 935 34.3 28.0 53 15,380 12,550 5,994.8 28.3 12.2 26.6 23.2 4,563,157.00 0.00 3,052.43 6.80
05/24/2017 12.3 21.6 94.8 935 40.0 22.2 53 17,941 9,944 5,994.8 28.2 12.2 26.6 23.1 4,577,486.00 0.00 3,348.26 7.46
05/25/2017 12.3 22.0 95.0 944 43.9 14.1 54 19,706 6,318 5,995.0 28.2 12.2 26.6 23.4 4,586,729.00 0.00 3,484.10 7.76
05/26/2017 12.3 21.0 95.0 947 47.0 15.1 55 21,113 6,778 5,995.0 28.3 12.2 26.6 23.2 4,596,689.00 0.00 3,203.61 7.14
05/27/2017 12.3 20.6 95.1 953 46.9 15.1 55 21,054 6,782 5,995.1 27.9 12.2 26.6 23.3 4,606,683.00 0.00 2,839.31 6.33
05/28/2017 12.3 20.9 95.2 958 44.0 15.1 55 19,743 6,789 5,995.2 28.0 12.2 26.6 23.6 4,616,705.00 0.00 2,710.07 6.04
05/29/2017 12.3 22.0 95.3 967 45.6 15.1 55 20,480 6,787 5,995.3 28.3 12.2 26.6 23.3 4,626,715.00 0.00 3,811.04 8.49
05/30/2017 12.3 22.6 95.3 970 45.9 18.2 55 20,583 8,156 5,995.3 28.3 12.2 26.6 23.1 4,638,625.00 0.00 3,750.21 8.36
05/31/2017 12.3 22.9 95.3 971 47.0 18.2 56 21,071 8,177 5,995.3 28.3 12.2 26.5 23.0 4,650,433.00 0.00 3,523.13 7.85
Average 39.4 18.5 5.70
Maximum 47.0 28.0 8.49
Minimum 29.5 3.0 2.90
Total Volume (AF) 2,422.4 1,139.2 350.44